KYIP/YIP METAR and TAF weather

Enter ICAO airport designator
Station Type Date Time Source
KYIP METAR 2018/12/13 19:53 UTC NOAA

KYIP 131953Z 17006KT 8SM CLR 05/M01 A3015 RMK AO2 SLP212 T00501011


Station Type Date Time Source
KYIP Decoded METAR 2018/12/13 19:53 UTC NOAA

WILLOW RUN AIRPORT, MI, United States (KYIP) 42-14N 083-32W 215M
Dec 13, 2018 - 02:53 PM EST / 2018.12.13 1953 UTC
Wind: from the S (170 degrees) at 7 MPH (6 KT):0
Visibility: 8 mile(s):0
Sky conditions: clear
Temperature: 41.0 F (5.0 C)
Dew Point: 30.0 F (-1.1 C)
Relative Humidity: 64%
Pressure (altimeter): 30.15 in. Hg (1020 hPa)
ob: KYIP 131953Z 17006KT 8SM CLR 05/M01 A3015 RMK AO2 SLP212 T00501011
cycle: 20

Station Type Date Time Source
KYIP TAF 2018/12/13 18:30 UTC NOAA

TAF KYIP 131728Z 1318/1418 15005KT P6SM FEW030 BKN200
FM140100 14005KT 4SM BR OVC025
FM140300 VRB03KT 2SM BR OVC019
FM140600 16005KT 4SM -RA BR OVC015
TEMPO 1410/1414 2SM -RA BR OVC010


Example: see airport list